Time;durP1;ratioP1;P1;durP2;ratioP2;P2;SDS_P1;SDS_P2;PMS_P1;PMS_P2;Temp;Humidity;BMP_temperature;BMP_pressure;BME280_temperature;BME280_humidity;BME280_pressure;Samples;Min_cycle;Max_cycle;Signal;HPM_P1;HPM_P2
2022/12/16 00:00:21;;;;;;;28.23;20.70;;;1.50;77.50;;;;;;5099977;27;20409;-67
2022/12/16 00:02:48;;;;;;;31.63;22.97;;;1.50;77.50;;;;;;5116953;27;20408;-67
2022/12/16 00:05:13;;;;;;;32.67;21.77;;;1.50;77.40;;;;;;5099729;27;20407;-67
2022/12/16 00:07:39;;;;;;;33.03;21.73;;;1.50;77.40;;;;;;5099581;27;20127;-67
2022/12/16 00:10:06;;;;;;;30.57;22.37;;;1.50;77.40;;;;;;5113929;27;20395;-72
2022/12/16 00:12:32;;;;;;;31.17;21.47;;;1.50;77.40;;;;;;5099870;27;20046;-71
2022/12/16 00:14:57;;;;;;;30.40;20.43;;;1.50;77.50;;;;;;5116669;27;20042;-72
2022/12/16 00:17:23;;;;;;;27.87;21.30;;;1.50;77.40;;;;;;5116330;27;20071;-72
2022/12/16 00:19:49;;;;;;;31.50;22.63;;;1.60;77.50;;;;;;5117866;27;20080;-72
2022/12/16 00:22:14;;;;;;;33.13;23.07;;;1.50;77.50;;;;;;5116736;27;20129;-71
2022/12/16 00:24:40;;;;;;;26.10;20.03;;;1.60;77.50;;;;;;5116192;27;20047;-72
2022/12/16 00:27:06;;;;;;;30.17;20.40;;;1.50;77.40;;;;;;5099558;27;20049;-72
2022/12/16 00:29:31;;;;;;;31.70;22.63;;;1.50;77.40;;;;;;5100230;27;20045;-72
2022/12/16 00:31:57;;;;;;;30.63;21.00;;;1.50;77.40;;;;;;5116061;27;20042;-67
2022/12/16 00:34:23;;;;;;;32.67;21.43;;;1.50;77.40;;;;;;5099435;27;20039;-67
2022/12/16 00:36:48;;;;;;;26.77;19.50;;;1.50;77.40;;;;;;5099090;27;20504;-66
2022/12/16 00:39:14;;;;;;;34.20;23.10;;;1.50;77.40;;;;;;5117659;27;20428;-66
2022/12/16 00:41:40;;;;;;;34.37;23.13;;;1.50;77.30;;;;;;5115555;27;20524;-67
2022/12/16 00:44:05;;;;;;;30.50;21.07;;;1.60;77.30;;;;;;5115946;27;20031;-67
2022/12/16 00:46:31;;;;;;;26.67;20.10;;;1.50;77.10;;;;;;5118520;27;20096;-67
2022/12/16 00:48:57;;;;;;;26.20;20.47;;;1.50;77.10;;;;;;5098987;27;20486;-71
2022/12/16 00:51:22;;;;;;;27.03;20.00;;;1.50;77.10;;;;;;5098551;27;20080;-67
2022/12/16 00:53:48;;;;;;;28.97;21.83;;;1.50;77.00;;;;;;5115455;27;20035;-67
2022/12/16 00:56:14;;;;;;;28.40;19.50;;;1.50;77.00;;;;;;5112678;27;20398;-66
2022/12/16 00:58:40;;;;;;;30.80;21.27;;;1.50;76.90;;;;;;5115550;27;20035;-67
2022/12/16 01:01:07;;;;;;;27.17;19.40;;;1.50;76.90;;;;;;5115275;27;20031;-67
2022/12/16 01:03:33;;;;;;;28.87;20.47;;;1.50;76.90;;;;;;5098593;27;20035;-67
2022/12/16 01:05:58;;;;;;;31.33;22.33;;;1.50;76.90;;;;;;5098137;27;20039;-67
2022/12/16 01:08:25;;;;;;;26.70;20.17;;;1.50;77.00;;;;;;5114804;27;20035;-67
2022/12/16 01:10:52;;;;;;;28.97;20.60;;;1.40;76.90;;;;;;5115225;27;20080;-67
2022/12/16 01:13:19;;;;;;;27.23;19.77;;;1.50;77.00;;;;;;5115416;27;20088;-67
2022/12/16 01:15:44;;;;;;;26.33;19.63;;;1.40;76.90;;;;;;5115319;27;20465;-67
2022/12/16 01:18:10;;;;;;;26.90;19.40;;;1.40;77.00;;;;;;5097645;27;20126;-67
2022/12/16 01:20:37;;;;;;;29.17;20.90;;;1.40;77.00;;;;;;5115086;27;20394;-67
2022/12/16 01:23:03;;;;;;;26.77;19.67;;;1.40;77.00;;;;;;5115255;27;20042;-67
2022/12/16 01:25:29;;;;;;;28.07;21.07;;;1.40;77.40;;;;;;5097634;27;20047;-67
2022/12/16 01:27:55;;;;;;;27.77;18.93;;;1.50;77.10;;;;;;5114858;27;20043;-67
2022/12/16 01:30:21;;;;;;;26.80;19.63;;;1.50;77.10;;;;;;5114910;27;20116;-67
2022/12/16 01:32:46;;;;;;;24.60;18.80;;;1.50;77.10;;;;;;5115172;27;20122;-67
2022/12/16 01:35:12;;;;;;;26.03;19.47;;;1.50;77.10;;;;;;5115352;27;20035;-67
2022/12/16 01:37:38;;;;;;;31.53;21.17;;;1.50;77.10;;;;;;5097401;27;20075;-67
2022/12/16 01:40:05;;;;;;;24.77;18.50;;;1.50;77.10;;;;;;5117934;27;20030;-67
2022/12/16 01:42:32;;;;;;;25.90;19.43;;;1.50;77.00;;;;;;5114621;27;20027;-67
2022/12/16 01:45:23;;;;;;;27.50;19.67;;;1.50;77.00;;;;;;5097846;27;20042;-67
2022/12/16 01:47:52;;;;;;;26.53;19.23;;;1.50;77.00;;;;;;5097244;27;20046;-67
2022/12/16 01:50:18;;;;;;;29.07;20.07;;;1.50;77.50;;;;;;5115374;27;20402;-73
2022/12/16 01:52:49;;;;;;;24.30;19.30;;;1.50;77.00;;;;;;5115163;27;20039;-71
2022/12/16 01:55:20;;;;;;;28.60;19.90;;;1.50;77.10;;;;;;5114893;28;20490;-71
2022/12/16 01:57:51;;;;;;;29.53;20.47;;;1.50;77.00;;;;;;5114583;27;20088;-71
2022/12/16 02:00:17;;;;;;;24.60;18.67;;;1.50;77.00;;;;;;5114914;27;20035;-71
2022/12/16 02:02:45;;;;;;;28.13;19.73;;;1.50;77.00;;;;;;5115915;27;20031;-71
2022/12/16 02:05:19;;;;;;;25.77;18.10;;;1.50;77.00;;;;;;5112884;27;20123;-71
2022/12/16 02:08:01;;;;;;;25.02;18.40;;;1.50;77.00;;;;;;5097612;27;20035;-72
2022/12/16 02:10:53;;;;;;;24.63;18.07;;;1.50;77.10;;;;;;5114366;27;20077;-67
2022/12/16 02:13:49;;;;;;;27.17;18.90;;;1.50;77.10;;;;;;5106719;28;20566;-66
2022/12/16 02:16:30;;;;;;;26.97;19.23;;;1.50;77.10;;;;;;5114413;28;20389;-66
2022/12/16 02:19:09;;;;;;;24.40;18.17;;;1.50;77.10;;;;;;5114294;27;20513;-66
2022/12/16 02:21:44;;;;;;;29.37;19.37;;;1.50;77.10;;;;;;5120582;27;20039;-66
2022/12/16 02:24:57;;;;;;;27.55;19.60;;;1.50;77.10;;;;;;5120078;27;20051;-71
2022/12/16 02:27:44;;;;;;;25.13;18.70;;;1.60;77.20;;;;;;5020797;28;20045;-71
2022/12/16 02:30:29;;;;;;;26.67;18.80;;;1.60;77.20;;;;;;5021005;28;20080;-67
2022/12/16 02:33:07;;;;;;;24.73;17.60;;;1.60;77.20;;;;;;5093599;27;20379;-66
2022/12/16 02:35:51;;;;;;;25.93;18.53;;;1.60;77.10;;;;;;5120937;27;20056;-67
2022/12/16 02:38:31;;;;;;;25.27;18.53;;;1.60;77.10;;;;;;5121286;27;20421;-72
2022/12/16 02:41:02;;;;;;;33.63;21.17;;;1.60;77.10;;;;;;5120791;27;20042;-72
2022/12/16 02:44:02;;;;;;;50.77;26.47;;;1.60;77.10;;;;;;5139517;27;20038;-71
2022/12/16 02:46:31;;;;;;;95.90;41.57;;;1.60;77.00;;;;;;5121421;27;20114;-71
2022/12/16 02:49:07;;;;;;;72.80;35.00;;;1.60;77.00;;;;;;5121815;27;20084;-71
2022/12/16 02:51:36;;;;;;;83.50;40.97;;;1.60;77.00;;;;;;5121518;27;20039;-71
2022/12/16 02:54:03;;;;;;;56.90;28.17;;;1.60;77.00;;;;;;5118498;27;20117;-71
2022/12/16 02:56:29;;;;;;;53.20;27.20;;;1.60;76.90;;;;;;5121277;27;20035;-71
2022/12/16 02:59:22;;;;;;;46.27;25.33;;;1.60;76.90;;;;;;5121739;27;20042;-71
2022/12/16 03:02:07;;;;;;;47.87;26.57;;;1.70;77.00;;;;;;5121150;27;20027;-71
2022/12/16 03:04:35;;;;;;;;;;;1.60;77.00;;;;;;5122423;27;20475;-71
2022/12/16 03:07:05;;;;;;;47.63;24.17;;;1.60;76.90;;;;;;5121112;27;20341;-71
2022/12/16 03:09:35;;;;;;;44.40;23.60;;;1.60;77.00;;;;;;5138852;27;20035;-71
2022/12/16 03:12:04;;;;;;;42.87;24.40;;;1.60;77.00;;;;;;5121253;27;20386;-71
2022/12/16 03:14:33;;;;;;;48.60;26.40;;;1.60;77.00;;;;;;5120826;27;20043;-71
2022/12/16 03:16:59;;;;;;;44.63;24.40;;;1.60;77.00;;;;;;5121531;27;20038;-72
2022/12/16 03:19:26;;;;;;;39.13;22.27;;;1.70;77.00;;;;;;5121245;27;20389;-71
2022/12/16 03:22:17;;;;;;;42.37;24.60;;;1.60;77.00;;;;;;5120769;27;20047;-72
2022/12/16 03:24:43;;;;;;;43.03;23.43;;;1.70;77.00;;;;;;5106655;27;20390;-71
2022/12/16 03:27:17;;;;;;;39.63;21.10;;;1.70;77.00;;;;;;5122138;27;20049;-72
2022/12/16 03:30:02;;;;;;;27.95;16.48;;;1.70;77.10;;;;;;5104002;27;20122;-71
2022/12/16 03:32:47;;;;;;;31.53;17.43;;;1.70;77.00;;;;;;5117033;27;20035;-71
2022/12/16 03:35:22;;;;;;;;;;;1.70;77.10;;;;;;5115889;27;20050;-71
2022/12/16 03:37:51;;;;;;;59.70;24.95;;;1.70;76.90;;;;;;5117089;27;19975;-71
2022/12/16 03:40:19;;;;;;;36.80;21.50;;;1.70;77.10;;;;;;5115299;27;20035;-71
2022/12/16 03:42:45;;;;;;;34.90;20.03;;;1.60;77.00;;;;;;5117338;27;20046;-71
2022/12/16 03:45:18;;;;;;;39.53;22.17;;;1.70;77.10;;;;;;5117528;27;20112;-71
2022/12/16 03:47:51;;;;;;;34.50;19.67;;;1.70;77.20;;;;;;5115318;27;20498;-71
2022/12/16 03:50:27;;;;;;;28.48;16.85;;;1.70;77.20;;;;;;5116870;27;20041;-71
2022/12/16 03:52:52;;;;;;;31.33;18.70;;;1.70;77.20;;;;;;5117077;27;20035;-71
2022/12/16 03:55:18;;;;;;;30.20;18.03;;;1.70;77.20;;;;;;5117009;27;20104;-71
2022/12/16 03:57:44;;;;;;;25.23;15.77;;;1.70;77.20;;;;;;5117282;27;20376;-71
2022/12/16 04:00:10;;;;;;;24.90;15.93;;;1.70;77.20;;;;;;5097291;27;20035;-71
2022/12/16 04:02:36;;;;;;;23.67;14.17;;;1.70;77.20;;;;;;5119050;27;20160;-71
2022/12/16 04:05:02;;;;;;;22.07;14.97;;;1.70;77.20;;;;;;5116899;27;20529;-72
2022/12/16 04:07:27;;;;;;;25.27;15.07;;;1.70;77.10;;;;;;5118149;27;20907;-71
2022/12/16 04:09:53;;;;;;;21.67;12.80;;;2.20;77.40;;;;;;5116494;27;20412;-72
2022/12/16 04:26:10;;;;;;;19.73;12.23;;;1.80;77.10;;;;;;5116326;27;20618;-72
2022/12/16 04:28:35;;;;;;;19.70;12.40;;;1.80;77.20;;;;;;5116782;27;20035;-72
2022/12/16 04:31:02;;;;;;;19.43;12.03;;;1.80;77.00;;;;;;5116400;27;20043;-72
